createdAt,value
2023-08-17T00:00:23.741Z,22.17
2023-08-17T00:10:26.907Z,22.23
2023-08-17T00:20:29.890Z,22.25
2023-08-17T00:30:36.502Z,22.22
2023-08-17T00:40:39.706Z,22.27
2023-08-17T00:50:44.526Z,22.21
2023-08-17T01:00:48.061Z,21.75
2023-08-17T01:10:58.792Z,21.60
2023-08-17T01:21:06.428Z,20.48
2023-08-17T01:31:12.285Z,19.54
2023-08-17T01:41:16.658Z,19.36
2023-08-17T01:51:20.563Z,19.24
2023-08-17T02:01:23.841Z,19.19
2023-08-17T02:11:27.544Z,19.13
2023-08-17T02:21:30.526Z,19.12
2023-08-17T02:31:33.574Z,19.14
2023-08-17T02:41:36.572Z,19.19
2023-08-17T02:51:39.547Z,19.21
2023-08-17T03:01:42.592Z,19.14
2023-08-17T03:11:45.684Z,19.08
2023-08-17T03:21:48.682Z,19.08
2023-08-17T03:31:51.680Z,19.02
2023-08-17T03:41:54.669Z,18.89
2023-08-17T03:51:57.789Z,18.90
2023-08-17T04:02:01.060Z,18.90
2023-08-17T04:12:05.475Z,18.94
2023-08-17T04:22:10.722Z,19.07
2023-08-17T04:32:16.430Z,19.16
2023-08-17T04:42:20.451Z,19.24
2023-08-17T04:52:23.706Z,19.37
2023-08-17T05:02:27.445Z,19.53
2023-08-17T05:12:31.260Z,19.60
2023-08-17T05:22:34.381Z,19.64
2023-08-17T05:32:37.442Z,19.73
2023-08-17T05:42:40.639Z,19.90
2023-08-17T05:52:43.704Z,20.13
2023-08-17T06:02:50.463Z,20.29
2023-08-17T06:12:52.906Z,20.44
2023-08-17T06:22:55.882Z,20.58
2023-08-17T06:32:59.462Z,20.71
2023-08-17T06:43:02.458Z,20.78
2023-08-17T06:53:06.301Z,20.83
2023-08-17T07:03:09.661Z,20.93
2023-08-17T07:13:12.659Z,21.07
2023-08-17T07:23:15.783Z,21.30
2023-08-17T07:33:18.840Z,21.59
2023-08-17T07:43:21.857Z,21.88
2023-08-17T07:53:24.929Z,22.25
2023-08-17T08:03:27.999Z,22.62
2023-08-17T08:13:31.052Z,23.05
2023-08-17T08:23:34.058Z,23.52
2023-08-17T08:33:37.214Z,23.80
2023-08-17T08:43:40.444Z,24.27
2023-08-17T08:53:46.529Z,24.92
2023-08-17T09:03:50.541Z,25.49
2023-08-17T09:13:55.101Z,25.91
2023-08-17T09:24:00.406Z,26.14
2023-08-17T09:34:07.512Z,26.07
2023-08-17T09:44:12.005Z,26.31
2023-08-17T09:54:23.042Z,26.94
2023-08-17T10:04:28.692Z,27.42
2023-08-17T10:14:36.245Z,28.00
2023-08-17T10:24:40.318Z,28.68
2023-08-17T10:34:43.999Z,29.27
2023-08-17T10:44:48.211Z,30.09
2023-08-17T10:54:51.345Z,30.80
2023-08-17T11:04:54.353Z,31.32
2023-08-17T11:15:00.339Z,31.87
2023-08-17T11:25:07.487Z,32.45
2023-08-17T11:35:11.595Z,32.87
2023-08-17T11:45:15.660Z,33.18
2023-08-17T11:55:20.956Z,33.38
2023-08-17T12:05:27.456Z,33.56
2023-08-17T12:15:33.115Z,33.75
2023-08-17T12:25:36.098Z,33.86
2023-08-17T12:35:39.815Z,34.07
2023-08-17T12:45:42.862Z,34.37
2023-08-17T12:55:45.945Z,34.66
2023-08-17T13:05:48.922Z,35.11
2023-08-17T13:15:52.853Z,35.50
2023-08-17T13:25:55.831Z,35.93
2023-08-17T13:35:58.958Z,35.73
2023-08-17T13:46:02.480Z,35.95
2023-08-17T13:56:05.940Z,36.68
2023-08-17T14:06:08.970Z,37.01
2023-08-17T14:16:12.279Z,37.49
2023-08-17T14:26:15.747Z,37.78
2023-08-17T14:36:20.489Z,38.20
2023-08-17T14:46:24.087Z,38.89
2023-08-17T14:56:27.125Z,38.76
2023-08-17T15:06:34.261Z,36.60
2023-08-17T15:16:38.119Z,32.67
2023-08-17T15:26:41.457Z,29.91
2023-08-17T15:36:44.464Z,27.76
2023-08-17T15:46:47.424Z,26.42
2023-08-17T15:56:51.059Z,26.01
2023-08-17T16:06:54.431Z,25.67
2023-08-17T16:16:57.928Z,25.16
2023-08-17T16:27:01.653Z,24.82
2023-08-17T16:37:04.880Z,24.66
2023-08-17T16:47:07.900Z,24.58
2023-08-17T16:57:10.933Z,24.41
2023-08-17T17:07:14.627Z,24.22
2023-08-17T17:17:17.698Z,24.14
2023-08-17T17:27:20.676Z,24.13
2023-08-17T17:37:23.726Z,24.15
2023-08-17T17:47:27.618Z,24.08
2023-08-17T17:57:31.175Z,24.02
2023-08-17T18:07:34.398Z,23.88
2023-08-17T18:17:37.433Z,23.77
2023-08-17T18:27:42.135Z,23.50
2023-08-17T18:37:46.237Z,23.31
2023-08-17T18:47:49.184Z,23.13
2023-08-17T18:57:54.150Z,23.05
2023-08-17T19:07:58.016Z,22.98
2023-08-17T19:18:01.046Z,22.82
2023-08-17T19:28:04.527Z,22.68
2023-08-17T19:38:07.513Z,22.65
2023-08-17T19:48:10.583Z,22.57
2023-08-17T19:58:13.648Z,22.47
2023-08-17T20:08:16.676Z,22.46
2023-08-17T20:18:19.720Z,22.44
2023-08-17T20:28:22.742Z,22.30
2023-08-17T20:38:25.685Z,22.15
2023-08-17T20:48:28.710Z,22.01
2023-08-17T20:58:31.703Z,21.94
2023-08-17T21:08:35.752Z,21.90
2023-08-17T21:18:39.818Z,21.94
2023-08-17T21:28:42.857Z,21.94
2023-08-17T21:38:47.213Z,21.84
2023-08-17T21:48:50.475Z,21.70
2023-08-17T21:58:53.530Z,21.51
2023-08-17T22:08:56.477Z,21.36
2023-08-17T22:18:59.481Z,21.24
2023-08-17T22:29:03.826Z,21.14
2023-08-17T22:39:10.753Z,21.07
2023-08-17T22:49:13.880Z,20.98
2023-08-17T22:59:17.999Z,20.85
2023-08-17T23:09:21.617Z,20.72
2023-08-17T23:19:24.767Z,20.63
2023-08-17T23:29:27.863Z,20.55
2023-08-17T23:39:30.975Z,20.46
2023-08-17T23:49:34.494Z,20.39
2023-08-17T23:59:37.495Z,20.41
